sensor_id;sensor_type;location;lat;lon;timestamp;temperature;humidity
21582;DHT22;10952;50.836;4.348;2023-07-31T00:02:01;18.40;99.90
21582;DHT22;10952;50.836;4.348;2023-07-31T00:04:26;18.40;99.90
21582;DHT22;10952;50.836;4.348;2023-07-31T00:06:52;18.30;99.90
21582;DHT22;10952;50.836;4.348;2023-07-31T00:09:18;18.40;99.90
21582;DHT22;10952;50.836;4.348;2023-07-31T00:11:43;18.40;99.90
21582;DHT22;10952;50.836;4.348;2023-07-31T00:14:09;18.50;99.90
21582;DHT22;10952;50.836;4.348;2023-07-31T00:16:35;18.60;99.90
21582;DHT22;10952;50.836;4.348;2023-07-31T00:19:01;18.50;99.90
21582;DHT22;10952;50.836;4.348;2023-07-31T00:21:27;18.50;99.90
21582;DHT22;10952;50.836;4.348;2023-07-31T00:23:52;18.60;99.90
21582;DHT22;10952;50.836;4.348;2023-07-31T00:26:18;18.70;99.90
21582;DHT22;10952;50.836;4.348;2023-07-31T00:28:43;18.70;99.90
21582;DHT22;10952;50.836;4.348;2023-07-31T00:31:09;18.60;99.90
21582;DHT22;10952;50.836;4.348;2023-07-31T00:33:35;18.60;99.90
21582;DHT22;10952;50.836;4.348;2023-07-31T00:36:02;18.70;99.90
21582;DHT22;10952;50.836;4.348;2023-07-31T00:38:27;18.60;99.90
21582;DHT22;10952;50.836;4.348;2023-07-31T00:40:53;18.60;99.90
21582;DHT22;10952;50.836;4.348;2023-07-31T00:43:19;18.60;99.90
21582;DHT22;10952;50.836;4.348;2023-07-31T00:45:44;18.50;99.90
21582;DHT22;10952;50.836;4.348;2023-07-31T00:48:10;18.50;99.90
21582;DHT22;10952;50.836;4.348;2023-07-31T00:50:37;18.40;99.90
21582;DHT22;10952;50.836;4.348;2023-07-31T00:53:03;18.40;99.90
21582;DHT22;10952;50.836;4.348;2023-07-31T00:55:29;18.50;99.90
21582;DHT22;10952;50.836;4.348;2023-07-31T00:57:55;18.40;99.90
21582;DHT22;10952;50.836;4.348;2023-07-31T01:00:21;18.50;99.90
21582;DHT22;10952;50.836;4.348;2023-07-31T01:02:48;18.50;99.90
21582;DHT22;10952;50.836;4.348;2023-07-31T01:05:14;18.50;99.90
21582;DHT22;10952;50.836;4.348;2023-07-31T01:07:56;18.60;99.90
21582;DHT22;10952;50.836;4.348;2023-07-31T01:10:28;18.60;99.90
21582;DHT22;10952;50.836;4.348;2023-07-31T01:12:56;18.50;99.90
21582;DHT22;10952;50.836;4.348;2023-07-31T01:15:23;18.60;99.90
21582;DHT22;10952;50.836;4.348;2023-07-31T01:17:48;18.60;99.90
21582;DHT22;10952;50.836;4.348;2023-07-31T01:20:33;18.50;99.90
21582;DHT22;10952;50.836;4.348;2023-07-31T01:26:00;18.50;99.90
21582;DHT22;10952;50.836;4.348;2023-07-31T01:31:02;18.60;99.90
21582;DHT22;10952;50.836;4.348;2023-07-31T01:33:30;18.70;99.90
21582;DHT22;10952;50.836;4.348;2023-07-31T01:35:56;18.70;99.90
21582;DHT22;10952;50.836;4.348;2023-07-31T01:38:22;18.60;99.90
21582;DHT22;10952;50.836;4.348;2023-07-31T01:40:52;18.60;99.90
21582;DHT22;10952;50.836;4.348;2023-07-31T01:43:18;18.60;99.90
21582;DHT22;10952;50.836;4.348;2023-07-31T01:45:44;18.50;99.90
21582;DHT22;10952;50.836;4.348;2023-07-31T01:48:09;18.50;99.90
21582;DHT22;10952;50.836;4.348;2023-07-31T01:50:35;18.40;99.90
21582;DHT22;10952;50.836;4.348;2023-07-31T01:53:00;18.40;99.90
21582;DHT22;10952;50.836;4.348;2023-07-31T01:55:26;18.50;99.90
21582;DHT22;10952;50.836;4.348;2023-07-31T01:57:52;18.60;99.90
21582;DHT22;10952;50.836;4.348;2023-07-31T02:00:18;18.60;99.90
21582;DHT22;10952;50.836;4.348;2023-07-31T02:02:43;18.70;99.90
21582;DHT22;10952;50.836;4.348;2023-07-31T02:05:09;18.70;99.90
21582;DHT22;10952;50.836;4.348;2023-07-31T02:07:35;18.60;99.90
21582;DHT22;10952;50.836;4.348;2023-07-31T02:10:01;18.60;99.90
21582;DHT22;10952;50.836;4.348;2023-07-31T02:12:27;18.50;99.90
21582;DHT22;10952;50.836;4.348;2023-07-31T02:14:55;18.40;99.90
21582;DHT22;10952;50.836;4.348;2023-07-31T02:17:21;18.50;99.90
21582;DHT22;10952;50.836;4.348;2023-07-31T02:19:47;18.50;99.90
21582;DHT22;10952;50.836;4.348;2023-07-31T02:22:13;18.50;99.90
21582;DHT22;10952;50.836;4.348;2023-07-31T02:24:38;18.60;99.90
21582;DHT22;10952;50.836;4.348;2023-07-31T02:27:04;18.50;99.90
21582;DHT22;10952;50.836;4.348;2023-07-31T02:29:30;18.60;99.90
21582;DHT22;10952;50.836;4.348;2023-07-31T02:31:55;18.50;99.90
21582;DHT22;10952;50.836;4.348;2023-07-31T02:34:21;18.50;99.90
21582;DHT22;10952;50.836;4.348;2023-07-31T02:36:46;18.50;99.90
21582;DHT22;10952;50.836;4.348;2023-07-31T02:39:12;18.50;99.90
21582;DHT22;10952;50.836;4.348;2023-07-31T02:41:38;18.50;99.90
21582;DHT22;10952;50.836;4.348;2023-07-31T02:44:03;18.50;99.90
21582;DHT22;10952;50.836;4.348;2023-07-31T02:46:29;18.60;99.90
21582;DHT22;10952;50.836;4.348;2023-07-31T02:48:55;18.50;99.90
21582;DHT22;10952;50.836;4.348;2023-07-31T02:51:20;18.40;99.90
21582;DHT22;10952;50.836;4.348;2023-07-31T02:53:47;18.50;99.90
21582;DHT22;10952;50.836;4.348;2023-07-31T02:56:13;18.30;99.90
21582;DHT22;10952;50.836;4.348;2023-07-31T02:58:39;18.30;99.90
21582;DHT22;10952;50.836;4.348;2023-07-31T03:01:04;18.40;99.90
21582;DHT22;10952;50.836;4.348;2023-07-31T03:03:30;18.40;99.90
21582;DHT22;10952;50.836;4.348;2023-07-31T03:05:56;18.40;99.90
21582;DHT22;10952;50.836;4.348;2023-07-31T03:08:22;18.40;99.90
21582;DHT22;10952;50.836;4.348;2023-07-31T03:10:48;18.40;99.90
21582;DHT22;10952;50.836;4.348;2023-07-31T03:13:14;18.40;99.90
21582;DHT22;10952;50.836;4.348;2023-07-31T03:15:42;18.50;99.90
21582;DHT22;10952;50.836;4.348;2023-07-31T03:18:08;18.50;99.90
21582;DHT22;10952;50.836;4.348;2023-07-31T03:20:34;18.50;99.90
21582;DHT22;10952;50.836;4.348;2023-07-31T03:22:59;18.50;99.90
21582;DHT22;10952;50.836;4.348;2023-07-31T03:25:25;18.40;99.90
21582;DHT22;10952;50.836;4.348;2023-07-31T03:27:50;18.40;99.90
21582;DHT22;10952;50.836;4.348;2023-07-31T03:30:16;18.30;99.90
21582;DHT22;10952;50.836;4.348;2023-07-31T03:32:42;18.20;99.90
21582;DHT22;10952;50.836;4.348;2023-07-31T03:35:07;18.20;99.90
21582;DHT22;10952;50.836;4.348;2023-07-31T03:37:33;18.30;99.90
21582;DHT22;10952;50.836;4.348;2023-07-31T03:39:59;18.10;99.90
21582;DHT22;10952;50.836;4.348;2023-07-31T03:42:24;18.10;99.90
21582;DHT22;10952;50.836;4.348;2023-07-31T03:44:50;18.10;99.90
21582;DHT22;10952;50.836;4.348;2023-07-31T03:47:15;18.00;99.90
21582;DHT22;10952;50.836;4.348;2023-07-31T03:49:41;18.10;99.90
21582;DHT22;10952;50.836;4.348;2023-07-31T03:52:06;18.00;99.90
21582;DHT22;10952;50.836;4.348;2023-07-31T03:54:32;18.00;99.90
21582;DHT22;10952;50.836;4.348;2023-07-31T03:56:58;18.00;99.90
21582;DHT22;10952;50.836;4.348;2023-07-31T03:59:24;18.10;99.90
21582;DHT22;10952;50.836;4.348;2023-07-31T04:01:50;18.10;99.90
21582;DHT22;10952;50.836;4.348;2023-07-31T04:04:15;18.10;99.90
21582;DHT22;10952;50.836;4.348;2023-07-31T04:06:41;18.00;99.90
21582;DHT22;10952;50.836;4.348;2023-07-31T04:09:06;18.00;99.90
21582;DHT22;10952;50.836;4.348;2023-07-31T04:11:32;17.90;99.90
21582;DHT22;10952;50.836;4.348;2023-07-31T04:13:58;18.00;99.90
21582;DHT22;10952;50.836;4.348;2023-07-31T04:16:23;17.90;99.90
21582;DHT22;10952;50.836;4.348;2023-07-31T04:18:49;17.80;99.90
21582;DHT22;10952;50.836;4.348;2023-07-31T04:21:15;17.80;99.90
21582;DHT22;10952;50.836;4.348;2023-07-31T04:23:40;17.90;99.90
21582;DHT22;10952;50.836;4.348;2023-07-31T04:26:06;18.00;99.90
21582;DHT22;10952;50.836;4.348;2023-07-31T04:28:32;17.90;99.90
21582;DHT22;10952;50.836;4.348;2023-07-31T04:30:57;17.90;99.90
21582;DHT22;10952;50.836;4.348;2023-07-31T04:33:23;17.90;99.90
21582;DHT22;10952;50.836;4.348;2023-07-31T04:35:52;18.00;99.90
21582;DHT22;10952;50.836;4.348;2023-07-31T04:38:21;18.00;99.90
21582;DHT22;10952;50.836;4.348;2023-07-31T04:40:47;18.00;99.90
21582;DHT22;10952;50.836;4.348;2023-07-31T04:43:13;18.00;99.90
21582;DHT22;10952;50.836;4.348;2023-07-31T04:45:39;18.00;99.90
21582;DHT22;10952;50.836;4.348;2023-07-31T04:48:05;17.90;99.90
21582;DHT22;10952;50.836;4.348;2023-07-31T04:50:30;18.00;99.90
21582;DHT22;10952;50.836;4.348;2023-07-31T04:52:56;18.20;99.90
21582;DHT22;10952;50.836;4.348;2023-07-31T04:55:22;18.10;99.90
21582;DHT22;10952;50.836;4.348;2023-07-31T04:57:48;18.10;99.90
21582;DHT22;10952;50.836;4.348;2023-07-31T05:00:13;18.30;99.90
21582;DHT22;10952;50.836;4.348;2023-07-31T05:02:39;18.20;99.90
21582;DHT22;10952;50.836;4.348;2023-07-31T05:05:05;18.20;99.90
21582;DHT22;10952;50.836;4.348;2023-07-31T05:07:30;18.00;99.90
21582;DHT22;10952;50.836;4.348;2023-07-31T05:09:56;18.00;99.90
21582;DHT22;10952;50.836;4.348;2023-07-31T05:12:22;18.00;99.90
21582;DHT22;10952;50.836;4.348;2023-07-31T05:14:48;18.00;99.90
21582;DHT22;10952;50.836;4.348;2023-07-31T05:17:13;17.90;99.90
21582;DHT22;10952;50.836;4.348;2023-07-31T05:19:39;17.80;99.90
21582;DHT22;10952;50.836;4.348;2023-07-31T05:22:05;17.80;99.90
21582;DHT22;10952;50.836;4.348;2023-07-31T05:24:31;17.70;99.90
21582;DHT22;10952;50.836;4.348;2023-07-31T05:26:57;17.60;99.90
21582;DHT22;10952;50.836;4.348;2023-07-31T05:29:22;17.50;99.90
21582;DHT22;10952;50.836;4.348;2023-07-31T05:31:48;17.60;99.90
21582;DHT22;10952;50.836;4.348;2023-07-31T05:34:13;17.60;99.90
21582;DHT22;10952;50.836;4.348;2023-07-31T05:36:39;17.40;99.90
21582;DHT22;10952;50.836;4.348;2023-07-31T05:39:05;17.50;99.90
21582;DHT22;10952;50.836;4.348;2023-07-31T05:41:34;17.50;99.90
21582;DHT22;10952;50.836;4.348;2023-07-31T05:44:00;17.60;99.90
21582;DHT22;10952;50.836;4.348;2023-07-31T05:46:26;17.70;99.90
21582;DHT22;10952;50.836;4.348;2023-07-31T05:48:51;17.60;99.90
21582;DHT22;10952;50.836;4.348;2023-07-31T05:51:17;17.70;99.90
21582;DHT22;10952;50.836;4.348;2023-07-31T05:53:43;17.60;99.90
21582;DHT22;10952;50.836;4.348;2023-07-31T05:56:09;17.60;99.90
21582;DHT22;10952;50.836;4.348;2023-07-31T05:58:34;17.60;99.90
21582;DHT22;10952;50.836;4.348;2023-07-31T06:01:00;17.60;99.90
21582;DHT22;10952;50.836;4.348;2023-07-31T06:03:25;17.70;99.90
21582;DHT22;10952;50.836;4.348;2023-07-31T06:05:51;17.60;99.90
21582;DHT22;10952;50.836;4.348;2023-07-31T06:08:17;17.50;99.90
21582;DHT22;10952;50.836;4.348;2023-07-31T06:10:42;17.60;99.90
21582;DHT22;10952;50.836;4.348;2023-07-31T06:13:08;17.60;99.90
21582;DHT22;10952;50.836;4.348;2023-07-31T06:15:33;17.60;99.90
21582;DHT22;10952;50.836;4.348;2023-07-31T06:17:59;17.70;99.90
21582;DHT22;10952;50.836;4.348;2023-07-31T06:20:30;17.70;99.90
21582;DHT22;10952;50.836;4.348;2023-07-31T06:22:56;17.80;99.90
21582;DHT22;10952;50.836;4.348;2023-07-31T06:25:22;17.90;99.90
21582;DHT22;10952;50.836;4.348;2023-07-31T06:27:47;17.80;99.90
21582;DHT22;10952;50.836;4.348;2023-07-31T06:30:13;18.00;99.90
21582;DHT22;10952;50.836;4.348;2023-07-31T06:32:39;18.00;99.90
21582;DHT22;10952;50.836;4.348;2023-07-31T06:35:06;17.90;99.90
21582;DHT22;10952;50.836;4.348;2023-07-31T06:37:32;18.00;99.90
21582;DHT22;10952;50.836;4.348;2023-07-31T06:39:58;18.10;99.90
21582;DHT22;10952;50.836;4.348;2023-07-31T06:42:23;18.10;99.90
21582;DHT22;10952;50.836;4.348;2023-07-31T06:44:49;18.10;99.90
21582;DHT22;10952;50.836;4.348;2023-07-31T06:47:15;18.20;99.90
21582;DHT22;10952;50.836;4.348;2023-07-31T06:49:40;18.30;99.90
21582;DHT22;10952;50.836;4.348;2023-07-31T06:52:06;18.40;99.90
21582;DHT22;10952;50.836;4.348;2023-07-31T06:54:32;18.50;99.90
21582;DHT22;10952;50.836;4.348;2023-07-31T06:56:57;18.80;99.90
21582;DHT22;10952;50.836;4.348;2023-07-31T06:59:23;18.80;99.90
21582;DHT22;10952;50.836;4.348;2023-07-31T07:01:49;18.80;99.90
21582;DHT22;10952;50.836;4.348;2023-07-31T07:04:14;18.70;99.90
21582;DHT22;10952;50.836;4.348;2023-07-31T07:06:40;18.90;99.90
21582;DHT22;10952;50.836;4.348;2023-07-31T07:09:06;18.90;99.90
21582;DHT22;10952;50.836;4.348;2023-07-31T07:11:31;19.00;99.90
21582;DHT22;10952;50.836;4.348;2023-07-31T07:13:57;18.80;99.90
21582;DHT22;10952;50.836;4.348;2023-07-31T07:16:22;18.70;99.90
21582;DHT22;10952;50.836;4.348;2023-07-31T07:18:48;18.60;99.90
21582;DHT22;10952;50.836;4.348;2023-07-31T07:21:14;18.70;99.90
21582;DHT22;10952;50.836;4.348;2023-07-31T07:23:42;18.80;99.90
21582;DHT22;10952;50.836;4.348;2023-07-31T07:26:08;18.80;99.90
21582;DHT22;10952;50.836;4.348;2023-07-31T07:28:34;18.80;99.90
21582;DHT22;10952;50.836;4.348;2023-07-31T07:30:59;18.80;99.90
21582;DHT22;10952;50.836;4.348;2023-07-31T07:33:25;18.80;99.90
21582;DHT22;10952;50.836;4.348;2023-07-31T07:35:50;18.90;99.90
21582;DHT22;10952;50.836;4.348;2023-07-31T07:38:16;18.90;99.90
21582;DHT22;10952;50.836;4.348;2023-07-31T07:40:42;19.00;99.90
21582;DHT22;10952;50.836;4.348;2023-07-31T07:43:08;19.10;99.90
21582;DHT22;10952;50.836;4.348;2023-07-31T07:45:33;19.10;99.90
21582;DHT22;10952;50.836;4.348;2023-07-31T07:47:59;19.20;99.90
21582;DHT22;10952;50.836;4.348;2023-07-31T07:50:25;19.30;99.90
21582;DHT22;10952;50.836;4.348;2023-07-31T07:52:50;19.20;99.90
21582;DHT22;10952;50.836;4.348;2023-07-31T07:55:16;19.10;99.90
21582;DHT22;10952;50.836;4.348;2023-07-31T07:57:42;19.20;99.90
21582;DHT22;10952;50.836;4.348;2023-07-31T08:00:10;19.20;99.90
21582;DHT22;10952;50.836;4.348;2023-07-31T08:02:35;19.30;99.90
21582;DHT22;10952;50.836;4.348;2023-07-31T08:05:01;19.10;99.90
21582;DHT22;10952;50.836;4.348;2023-07-31T08:07:27;19.20;99.90
21582;DHT22;10952;50.836;4.348;2023-07-31T08:09:52;19.20;99.90
21582;DHT22;10952;50.836;4.348;2023-07-31T08:12:18;19.20;99.90
21582;DHT22;10952;50.836;4.348;2023-07-31T08:14:43;19.20;99.90
21582;DHT22;10952;50.836;4.348;2023-07-31T08:17:09;19.20;99.90
21582;DHT22;10952;50.836;4.348;2023-07-31T08:19:35;19.30;99.90
21582;DHT22;10952;50.836;4.348;2023-07-31T08:22:00;19.20;99.90
21582;DHT22;10952;50.836;4.348;2023-07-31T08:24:26;19.10;99.90
21582;DHT22;10952;50.836;4.348;2023-07-31T08:26:51;19.00;99.90
21582;DHT22;10952;50.836;4.348;2023-07-31T08:29:17;19.10;99.90
21582;DHT22;10952;50.836;4.348;2023-07-31T08:31:43;19.10;99.90
21582;DHT22;10952;50.836;4.348;2023-07-31T08:34:08;19.00;99.90
21582;DHT22;10952;50.836;4.348;2023-07-31T08:36:34;18.70;99.90
21582;DHT22;10952;50.836;4.348;2023-07-31T08:38:59;18.80;99.90
21582;DHT22;10952;50.836;4.348;2023-07-31T08:41:25;18.80;99.90
21582;DHT22;10952;50.836;4.348;2023-07-31T08:43:53;18.80;99.90
21582;DHT22;10952;50.836;4.348;2023-07-31T08:46:20;18.80;99.90
21582;DHT22;10952;50.836;4.348;2023-07-31T08:48:46;19.00;99.90
21582;DHT22;10952;50.836;4.348;2023-07-31T08:51:14;18.90;99.90
21582;DHT22;10952;50.836;4.348;2023-07-31T08:53:39;18.80;99.90
21582;DHT22;10952;50.836;4.348;2023-07-31T08:56:06;18.90;99.90
21582;DHT22;10952;50.836;4.348;2023-07-31T08:58:32;18.90;99.90
21582;DHT22;10952;50.836;4.348;2023-07-31T09:01:01;18.90;99.90
21582;DHT22;10952;50.836;4.348;2023-07-31T09:03:30;18.90;99.90
21582;DHT22;10952;50.836;4.348;2023-07-31T09:05:59;18.80;99.90
21582;DHT22;10952;50.836;4.348;2023-07-31T09:08:26;19.00;99.90
21582;DHT22;10952;50.836;4.348;2023-07-31T09:10:59;19.10;99.90
21582;DHT22;10952;50.836;4.348;2023-07-31T09:13:27;19.20;99.90
21582;DHT22;10952;50.836;4.348;2023-07-31T09:15:53;19.30;99.90
21582;DHT22;10952;50.836;4.348;2023-07-31T09:18:19;19.20;99.90
21582;DHT22;10952;50.836;4.348;2023-07-31T09:21:00;19.10;99.90
21582;DHT22;10952;50.836;4.348;2023-07-31T09:23:43;19.20;99.90
21582;DHT22;10952;50.836;4.348;2023-07-31T09:26:09;19.30;99.90
21582;DHT22;10952;50.836;4.348;2023-07-31T09:28:35;19.30;99.90
21582;DHT22;10952;50.836;4.348;2023-07-31T09:31:00;19.50;99.90
21582;DHT22;10952;50.836;4.348;2023-07-31T09:33:26;19.60;99.90
21582;DHT22;10952;50.836;4.348;2023-07-31T09:35:52;19.50;99.90
21582;DHT22;10952;50.836;4.348;2023-07-31T09:38:18;19.50;99.90
21582;DHT22;10952;50.836;4.348;2023-07-31T09:40:45;19.20;99.90
21582;DHT22;10952;50.836;4.348;2023-07-31T09:43:18;19.20;99.90
21582;DHT22;10952;50.836;4.348;2023-07-31T09:45:45;19.20;99.90
21582;DHT22;10952;50.836;4.348;2023-07-31T09:48:17;19.20;99.90
21582;DHT22;10952;50.836;4.348;2023-07-31T09:50:47;19.30;99.90
21582;DHT22;10952;50.836;4.348;2023-07-31T09:53:13;19.00;99.90
21582;DHT22;10952;50.836;4.348;2023-07-31T09:55:40;19.00;99.90
21582;DHT22;10952;50.836;4.348;2023-07-31T09:58:07;18.80;99.90
21582;DHT22;10952;50.836;4.348;2023-07-31T10:00:34;19.00;99.90
21582;DHT22;10952;50.836;4.348;2023-07-31T10:03:01;19.00;99.90
21582;DHT22;10952;50.836;4.348;2023-07-31T10:05:47;19.00;99.90
21582;DHT22;10952;50.836;4.348;2023-07-31T10:08:16;19.00;99.90
21582;DHT22;10952;50.836;4.348;2023-07-31T10:10:44;18.90;99.90
21582;DHT22;10952;50.836;4.348;2023-07-31T10:13:11;18.70;99.90
21582;DHT22;10952;50.836;4.348;2023-07-31T10:15:37;18.80;99.90
21582;DHT22;10952;50.836;4.348;2023-07-31T10:18:02;19.10;99.90
21582;DHT22;10952;50.836;4.348;2023-07-31T10:20:31;19.20;99.90
21582;DHT22;10952;50.836;4.348;2023-07-31T10:22:57;19.40;99.90
21582;DHT22;10952;50.836;4.348;2023-07-31T10:25:25;19.40;99.90
21582;DHT22;10952;50.836;4.348;2023-07-31T10:27:52;19.40;99.90
21582;DHT22;10952;50.836;4.348;2023-07-31T10:30:22;19.50;99.90
21582;DHT22;10952;50.836;4.348;2023-07-31T10:32:51;19.60;99.90
21582;DHT22;10952;50.836;4.348;2023-07-31T10:35:20;19.70;99.90
21582;DHT22;10952;50.836;4.348;2023-07-31T10:37:48;19.70;99.90
21582;DHT22;10952;50.836;4.348;2023-07-31T10:40:27;19.80;99.90
21582;DHT22;10952;50.836;4.348;2023-07-31T10:42:56;19.90;99.90
21582;DHT22;10952;50.836;4.348;2023-07-31T10:45:32;20.00;99.90
21582;DHT22;10952;50.836;4.348;2023-07-31T10:50:29;20.10;99.90
21582;DHT22;10952;50.836;4.348;2023-07-31T10:52:58;20.20;99.90
21582;DHT22;10952;50.836;4.348;2023-07-31T10:55:26;20.20;99.90
21582;DHT22;10952;50.836;4.348;2023-07-31T10:57:57;20.20;99.90
21582;DHT22;10952;50.836;4.348;2023-07-31T11:00:27;20.50;99.90
21582;DHT22;10952;50.836;4.348;2023-07-31T11:02:58;20.50;99.90
21582;DHT22;10952;50.836;4.348;2023-07-31T11:08:26;20.60;99.90
21582;DHT22;10952;50.836;4.348;2023-07-31T11:13:33;20.50;99.90
21582;DHT22;10952;50.836;4.348;2023-07-31T11:15:59;20.30;99.90
21582;DHT22;10952;50.836;4.348;2023-07-31T11:18:26;20.50;99.90
21582;DHT22;10952;50.836;4.348;2023-07-31T11:20:53;20.50;99.90
21582;DHT22;10952;50.836;4.348;2023-07-31T11:23:19;20.70;99.90
21582;DHT22;10952;50.836;4.348;2023-07-31T11:25:45;20.60;99.90
21582;DHT22;10952;50.836;4.348;2023-07-31T11:28:13;20.60;99.90
21582;DHT22;10952;50.836;4.348;2023-07-31T11:30:40;20.60;99.90
21582;DHT22;10952;50.836;4.348;2023-07-31T11:33:07;20.60;99.90
21582;DHT22;10952;50.836;4.348;2023-07-31T11:40:52;20.60;99.90
21582;DHT22;10952;50.836;4.348;2023-07-31T11:43:19;20.50;99.90
21582;DHT22;10952;50.836;4.348;2023-07-31T11:45:47;20.60;99.90
21582;DHT22;10952;50.836;4.348;2023-07-31T11:48:34;20.60;99.90
21582;DHT22;10952;50.836;4.348;2023-07-31T11:51:05;20.60;99.90
21582;DHT22;10952;50.836;4.348;2023-07-31T11:53:40;20.70;99.90
21582;DHT22;10952;50.836;4.348;2023-07-31T11:56:07;20.70;99.90
21582;DHT22;10952;50.836;4.348;2023-07-31T11:58:34;20.90;99.90
21582;DHT22;10952;50.836;4.348;2023-07-31T12:01:01;20.60;99.90
21582;DHT22;10952;50.836;4.348;2023-07-31T12:03:27;20.60;99.90
21582;DHT22;10952;50.836;4.348;2023-07-31T12:05:53;20.50;99.90
21582;DHT22;10952;50.836;4.348;2023-07-31T12:08:21;20.60;99.90
21582;DHT22;10952;50.836;4.348;2023-07-31T12:10:50;20.80;99.90
21582;DHT22;10952;50.836;4.348;2023-07-31T12:13:24;21.00;99.90
21582;DHT22;10952;50.836;4.348;2023-07-31T12:15:54;21.00;99.90
21582;DHT22;10952;50.836;4.348;2023-07-31T12:18:21;20.90;99.90
21582;DHT22;10952;50.836;4.348;2023-07-31T12:20:53;20.90;99.90
21582;DHT22;10952;50.836;4.348;2023-07-31T12:23:24;20.80;99.90
21582;DHT22;10952;50.836;4.348;2023-07-31T12:26:03;20.70;99.90
21582;DHT22;10952;50.836;4.348;2023-07-31T12:28:29;20.80;99.90
21582;DHT22;10952;50.836;4.348;2023-07-31T12:30:59;20.90;99.90
21582;DHT22;10952;50.836;4.348;2023-07-31T12:33:34;20.90;99.90
21582;DHT22;10952;50.836;4.348;2023-07-31T12:36:04;21.00;99.90
21582;DHT22;10952;50.836;4.348;2023-07-31T12:38:32;21.10;99.90
21582;DHT22;10952;50.836;4.348;2023-07-31T12:40:57;21.10;99.90
21582;DHT22;10952;50.836;4.348;2023-07-31T12:43:23;21.20;99.90
21582;DHT22;10952;50.836;4.348;2023-07-31T12:45:49;21.20;99.90
21582;DHT22;10952;50.836;4.348;2023-07-31T12:48:14;21.40;99.90
21582;DHT22;10952;50.836;4.348;2023-07-31T12:50:40;21.80;99.90
21582;DHT22;10952;50.836;4.348;2023-07-31T12:53:06;22.10;99.90
21582;DHT22;10952;50.836;4.348;2023-07-31T12:55:32;21.90;99.90
21582;DHT22;10952;50.836;4.348;2023-07-31T12:58:02;21.90;99.90
21582;DHT22;10952;50.836;4.348;2023-07-31T13:00:28;21.80;99.90
21582;DHT22;10952;50.836;4.348;2023-07-31T13:02:54;21.70;99.90
21582;DHT22;10952;50.836;4.348;2023-07-31T13:05:20;21.70;99.90
21582;DHT22;10952;50.836;4.348;2023-07-31T13:07:46;21.50;99.90
21582;DHT22;10952;50.836;4.348;2023-07-31T13:10:12;21.20;99.90
21582;DHT22;10952;50.836;4.348;2023-07-31T13:12:38;21.00;99.90
21582;DHT22;10952;50.836;4.348;2023-07-31T13:15:05;20.90;99.90
21582;DHT22;10952;50.836;4.348;2023-07-31T13:17:30;20.80;99.90
21582;DHT22;10952;50.836;4.348;2023-07-31T13:19:56;20.70;99.90
21582;DHT22;10952;50.836;4.348;2023-07-31T13:22:22;20.70;99.90
21582;DHT22;10952;50.836;4.348;2023-07-31T13:24:47;20.50;99.90
21582;DHT22;10952;50.836;4.348;2023-07-31T13:27:13;20.40;99.90
21582;DHT22;10952;50.836;4.348;2023-07-31T13:29:42;20.20;99.90
21582;DHT22;10952;50.836;4.348;2023-07-31T13:32:08;20.10;99.90
21582;DHT22;10952;50.836;4.348;2023-07-31T13:34:33;19.80;99.90
21582;DHT22;10952;50.836;4.348;2023-07-31T13:36:59;19.80;99.90
21582;DHT22;10952;50.836;4.348;2023-07-31T13:39:24;19.80;99.90
21582;DHT22;10952;50.836;4.348;2023-07-31T13:41:50;19.70;99.90
21582;DHT22;10952;50.836;4.348;2023-07-31T13:44:15;19.50;99.90
21582;DHT22;10952;50.836;4.348;2023-07-31T13:46:41;19.60;99.90
21582;DHT22;10952;50.836;4.348;2023-07-31T13:49:07;19.60;99.90
21582;DHT22;10952;50.836;4.348;2023-07-31T13:51:32;19.50;99.90
21582;DHT22;10952;50.836;4.348;2023-07-31T13:53:58;19.40;99.90
21582;DHT22;10952;50.836;4.348;2023-07-31T13:56:24;19.40;99.90
21582;DHT22;10952;50.836;4.348;2023-07-31T13:58:49;19.30;99.90
21582;DHT22;10952;50.836;4.348;2023-07-31T14:01:15;19.30;99.90
21582;DHT22;10952;50.836;4.348;2023-07-31T14:03:41;19.30;99.90
21582;DHT22;10952;50.836;4.348;2023-07-31T14:06:06;19.20;99.90
21582;DHT22;10952;50.836;4.348;2023-07-31T14:08:32;19.20;99.90
21582;DHT22;10952;50.836;4.348;2023-07-31T14:10:58;19.30;99.90
21582;DHT22;10952;50.836;4.348;2023-07-31T14:13:23;19.30;99.90
21582;DHT22;10952;50.836;4.348;2023-07-31T14:15:49;19.30;99.90
21582;DHT22;10952;50.836;4.348;2023-07-31T14:18:14;19.40;99.90
21582;DHT22;10952;50.836;4.348;2023-07-31T14:20:40;19.30;99.90
21582;DHT22;10952;50.836;4.348;2023-07-31T14:23:06;19.20;99.90
21582;DHT22;10952;50.836;4.348;2023-07-31T14:25:31;19.10;99.90
21582;DHT22;10952;50.836;4.348;2023-07-31T14:27:57;19.00;99.90
21582;DHT22;10952;50.836;4.348;2023-07-31T14:30:22;19.00;99.90
21582;DHT22;10952;50.836;4.348;2023-07-31T14:32:48;19.20;99.90
21582;DHT22;10952;50.836;4.348;2023-07-31T14:35:14;19.30;99.90
21582;DHT22;10952;50.836;4.348;2023-07-31T14:37:41;19.40;99.90
21582;DHT22;10952;50.836;4.348;2023-07-31T14:40:08;19.40;99.90
21582;DHT22;10952;50.836;4.348;2023-07-31T14:42:34;19.30;99.90
21582;DHT22;10952;50.836;4.348;2023-07-31T14:45:01;19.20;99.90
21582;DHT22;10952;50.836;4.348;2023-07-31T14:47:26;19.00;99.90
21582;DHT22;10952;50.836;4.348;2023-07-31T14:49:52;19.10;99.90
21582;DHT22;10952;50.836;4.348;2023-07-31T14:52:18;19.20;99.90
21582;DHT22;10952;50.836;4.348;2023-07-31T14:54:43;19.10;99.90
21582;DHT22;10952;50.836;4.348;2023-07-31T14:57:09;19.20;99.90
21582;DHT22;10952;50.836;4.348;2023-07-31T14:59:34;19.20;99.90
21582;DHT22;10952;50.836;4.348;2023-07-31T15:02:00;19.20;99.90
21582;DHT22;10952;50.836;4.348;2023-07-31T15:04:26;19.10;99.90
21582;DHT22;10952;50.836;4.348;2023-07-31T15:06:52;18.90;99.90
21582;DHT22;10952;50.836;4.348;2023-07-31T15:09:18;18.90;99.90
21582;DHT22;10952;50.836;4.348;2023-07-31T15:11:43;18.90;99.90
21582;DHT22;10952;50.836;4.348;2023-07-31T15:14:09;19.00;99.90
21582;DHT22;10952;50.836;4.348;2023-07-31T15:16:35;19.10;99.90
21582;DHT22;10952;50.836;4.348;2023-07-31T15:19:00;19.10;99.90
21582;DHT22;10952;50.836;4.348;2023-07-31T15:21:26;19.10;99.90
21582;DHT22;10952;50.836;4.348;2023-07-31T15:23:52;19.10;99.90
21582;DHT22;10952;50.836;4.348;2023-07-31T15:26:18;19.00;99.90
21582;DHT22;10952;50.836;4.348;2023-07-31T15:28:56;19.00;99.90
21582;DHT22;10952;50.836;4.348;2023-07-31T15:31:21;19.10;99.90
21582;DHT22;10952;50.836;4.348;2023-07-31T15:33:48;19.20;99.90
21582;DHT22;10952;50.836;4.348;2023-07-31T15:36:14;19.10;99.90
21582;DHT22;10952;50.836;4.348;2023-07-31T15:38:39;19.20;99.90
21582;DHT22;10952;50.836;4.348;2023-07-31T15:41:05;19.20;99.90
21582;DHT22;10952;50.836;4.348;2023-07-31T15:43:31;19.10;99.90
21582;DHT22;10952;50.836;4.348;2023-07-31T15:45:57;18.90;99.90